Kaktovik, AK

2:12 PM AKST on February 10, 2016 (GMT -0900)
Barter Island LRRS | | Change Station
CLOSE
Current Station
Airport
Location: Barter Island,
Elevation: 7 ft
Nearby Weather Stations

Elev 7 ft 70.13 °N, 143.58 °W | Updated 16 minutes ago

Light Snow
Light Snow Mist
1 °F
Feels Like -25 °F
N
32
Wind Variable Wind from East
Gusts 38 mph

Today
High -- | Low -- °F
--% Chance of Precip.
Yesterday
High -- | Low -- °F
Precip. -- in
Pressure 30.27 in
Visibility 0.8 miles
Clouds
Windchill -25 °F
Dew Point -3 °F
Humidity 83%
Rainfall 0.00 in
Snow Depth Not available.
9:34 AM 4:03 PM
Waxing Crescent, 8% visible
METAR PABA 102256Z AUTO 09028G33KT 3/4SM -SN BR VV015 M17/M19 A3027 RMK AO2 PK WND 09037/2206 SLP248 P0000 T11721194 FZRANO
Pressure 30.27 in
Visibility 0.8 miles
Clouds
Windchill -25 °F
Dew Point -3 °F
Humidity 83%
Rainfall 0.00 in
Snow Depth Not available.
9:34 AM 4:03 PM
Waxing Crescent, 8% visible
METAR PABA 102256Z AUTO 09028G33KT 3/4SM -SN BR VV015 M17/M19 A3027 RMK AO2 PK WND 09037/2206 SLP248 P0000 T11721194 FZRANO

10-Day Weather Forecast

Almanac

Astronomy

Feb. 10, 2016 Rise Set
Actual Time
Civil Twilight
Nautical Twilight
Astronomical Twilight
Moon
Length of Visible Light
Length of Day
Tomorrow will be .
, % of the Moon is Illuminated

Today's Extremes

State Highs State Lows

Community

WunderPhotos

Upload Photos

1,891,933 photos uploaded!

WunderBlog® & News

Nearby

Air Quality

  Air Quality AQ Index Pollutant
Not available.

Snow Depth

Station Depth Elevation

Earthquake Activity

City Distance Mag. Time & Date
Minimum magnitude displayed is 2.5.

Coastal Water Temperatures

Place Temperature

Stations

Nearby Weather Stations

Station Location Temp. Windchill Dew Point Humidity Wind Precip. Elev Updated Type
                   

Watches & Warnings

There are currently no watches in effect.